sensor_id;sensor_type;location;lat;lon;timestamp;P1;P2;P0
46681;PMS5003;34101;53.430;-2.224;2023-07-22T00:00:42;4;4;
46681;PMS5003;34101;53.430;-2.224;2023-07-22T00:03:10;3;3;
46681;PMS5003;34101;53.430;-2.224;2023-07-22T00:05:39;3;3;
46681;PMS5003;34101;53.430;-2.224;2023-07-22T00:08:07;3;3;
46681;PMS5003;34101;53.430;-2.224;2023-07-22T00:10:34;6;4;
46681;PMS5003;34101;53.430;-2.224;2023-07-22T00:13:02;4;3;
46681;PMS5003;34101;53.430;-2.224;2023-07-22T00:15:29;5;5;
46681;PMS5003;34101;53.430;-2.224;2023-07-22T00:17:56;5;3;
46681;PMS5003;34101;53.430;-2.224;2023-07-22T00:20:24;5;4;
46681;PMS5003;34101;53.430;-2.224;2023-07-22T00:22:51;3;3;
46681;PMS5003;34101;53.430;-2.224;2023-07-22T00:25:19;5;5;
46681;PMS5003;34101;53.430;-2.224;2023-07-22T00:27:46;4;4;
46681;PMS5003;34101;53.430;-2.224;2023-07-22T00:30:14;5;5;
46681;PMS5003;34101;53.430;-2.224;2023-07-22T00:32:41;3;3;
46681;PMS5003;34101;53.430;-2.224;2023-07-22T00:35:08;4;4;
46681;PMS5003;34101;53.430;-2.224;2023-07-22T00:37:36;6;6;
46681;PMS5003;34101;53.430;-2.224;2023-07-22T00:40:10;3;3;
46681;PMS5003;34101;53.430;-2.224;2023-07-22T00:42:38;3;3;
46681;PMS5003;34101;53.430;-2.224;2023-07-22T00:45:07;5;3;
46681;PMS5003;34101;53.430;-2.224;2023-07-22T00:47:35;5;4;
46681;PMS5003;34101;53.430;-2.224;2023-07-22T00:50:03;5;5;
46681;PMS5003;34101;53.430;-2.224;2023-07-22T00:52:33;5;4;
46681;PMS5003;34101;53.430;-2.224;2023-07-22T00:55:00;5;5;
46681;PMS5003;34101;53.430;-2.224;2023-07-22T00:57:29;5;5;
46681;PMS5003;34101;53.430;-2.224;2023-07-22T00:59:56;6;6;
46681;PMS5003;34101;53.430;-2.224;2023-07-22T01:02:23;5;5;
46681;PMS5003;34101;53.430;-2.224;2023-07-22T01:04:51;6;6;
46681;PMS5003;34101;53.430;-2.224;2023-07-22T01:07:19;4;4;
46681;PMS5003;34101;53.430;-2.224;2023-07-22T01:09:47;6;6;
46681;PMS5003;34101;53.430;-2.224;2023-07-22T01:12:24;5;5;
46681;PMS5003;34101;53.430;-2.224;2023-07-22T01:14:52;6;6;
46681;PMS5003;34101;53.430;-2.224;2023-07-22T01:17:25;6;6;
46681;PMS5003;34101;53.430;-2.224;2023-07-22T01:20:03;5;5;
46681;PMS5003;34101;53.430;-2.224;2023-07-22T01:22:31;6;6;
46681;PMS5003;34101;53.430;-2.224;2023-07-22T01:25:00;7;7;
46681;PMS5003;34101;53.430;-2.224;2023-07-22T01:27:33;6;6;
46681;PMS5003;34101;53.430;-2.224;2023-07-22T01:30:02;7;7;
46681;PMS5003;34101;53.430;-2.224;2023-07-22T01:32:30;6;5;
46681;PMS5003;34101;53.430;-2.224;2023-07-22T01:34:58;4;4;
46681;PMS5003;34101;53.430;-2.224;2023-07-22T01:37:25;5;5;
46681;PMS5003;34101;53.430;-2.224;2023-07-22T01:39:53;5;5;
46681;PMS5003;34101;53.430;-2.224;2023-07-22T01:42:20;6;6;
46681;PMS5003;34101;53.430;-2.224;2023-07-22T01:44:52;5;5;
46681;PMS5003;34101;53.430;-2.224;2023-07-22T01:47:20;6;6;
46681;PMS5003;34101;53.430;-2.224;2023-07-22T01:49:47;6;6;
46681;PMS5003;34101;53.430;-2.224;2023-07-22T01:52:15;5;5;
46681;PMS5003;34101;53.430;-2.224;2023-07-22T01:54:42;5;5;
46681;PMS5003;34101;53.430;-2.224;2023-07-22T01:57:10;7;5;
46681;PMS5003;34101;53.430;-2.224;2023-07-22T01:59:37;6;6;
46681;PMS5003;34101;53.430;-2.224;2023-07-22T02:02:06;6;6;
46681;PMS5003;34101;53.430;-2.224;2023-07-22T02:04:34;5;5;
46681;PMS5003;34101;53.430;-2.224;2023-07-22T02:07:01;6;6;
46681;PMS5003;34101;53.430;-2.224;2023-07-22T02:09:29;7;4;
46681;PMS5003;34101;53.430;-2.224;2023-07-22T02:11:56;4;4;
46681;PMS5003;34101;53.430;-2.224;2023-07-22T02:14:24;5;5;
46681;PMS5003;34101;53.430;-2.224;2023-07-22T02:16:51;5;5;
46681;PMS5003;34101;53.430;-2.224;2023-07-22T02:19:19;6;6;
46681;PMS5003;34101;53.430;-2.224;2023-07-22T02:21:46;4;4;
46681;PMS5003;34101;53.430;-2.224;2023-07-22T02:24:14;3;3;
46681;PMS5003;34101;53.430;-2.224;2023-07-22T02:26:42;4;4;
46681;PMS5003;34101;53.430;-2.224;2023-07-22T02:29:09;5;4;
46681;PMS5003;34101;53.430;-2.224;2023-07-22T02:31:37;4;4;
46681;PMS5003;34101;53.430;-2.224;2023-07-22T02:34:04;3;3;
46681;PMS5003;34101;53.430;-2.224;2023-07-22T02:36:32;5;5;
46681;PMS5003;34101;53.430;-2.224;2023-07-22T02:38:59;3;3;
46681;PMS5003;34101;53.430;-2.224;2023-07-22T02:41:27;5;5;
46681;PMS5003;34101;53.430;-2.224;2023-07-22T02:43:54;2;2;
46681;PMS5003;34101;53.430;-2.224;2023-07-22T02:46:21;3;3;
46681;PMS5003;34101;53.430;-2.224;2023-07-22T02:48:49;4;4;
46681;PMS5003;34101;53.430;-2.224;2023-07-22T02:51:16;4;4;
46681;PMS5003;34101;53.430;-2.224;2023-07-22T02:53:43;4;4;
46681;PMS5003;34101;53.430;-2.224;2023-07-22T02:56:11;2;2;
46681;PMS5003;34101;53.430;-2.224;2023-07-22T02:58:39;3;3;
46681;PMS5003;34101;53.430;-2.224;2023-07-22T03:01:08;3;3;
46681;PMS5003;34101;53.430;-2.224;2023-07-22T03:03:35;4;4;
46681;PMS5003;34101;53.430;-2.224;2023-07-22T03:06:02;2;2;
46681;PMS5003;34101;53.430;-2.224;2023-07-22T03:08:30;4;3;
46681;PMS5003;34101;53.430;-2.224;2023-07-22T03:10:57;5;3;
46681;PMS5003;34101;53.430;-2.224;2023-07-22T03:13:25;5;3;
46681;PMS5003;34101;53.430;-2.224;2023-07-22T03:15:52;7;4;
46681;PMS5003;34101;53.430;-2.224;2023-07-22T03:18:20;3;3;
46681;PMS5003;34101;53.430;-2.224;2023-07-22T03:20:47;2;2;
46681;PMS5003;34101;53.430;-2.224;2023-07-22T03:23:14;2;2;
46681;PMS5003;34101;53.430;-2.224;2023-07-22T03:25:42;2;2;
46681;PMS5003;34101;53.430;-2.224;2023-07-22T03:28:09;3;3;
46681;PMS5003;34101;53.430;-2.224;2023-07-22T03:30:37;5;3;
46681;PMS5003;34101;53.430;-2.224;2023-07-22T03:33:04;4;4;
46681;PMS5003;34101;53.430;-2.224;2023-07-22T03:35:33;4;3;
46681;PMS5003;34101;53.430;-2.224;2023-07-22T03:38:00;3;3;
46681;PMS5003;34101;53.430;-2.224;2023-07-22T03:40:27;3;3;
46681;PMS5003;34101;53.430;-2.224;2023-07-22T03:42:55;4;3;
46681;PMS5003;34101;53.430;-2.224;2023-07-22T03:45:23;5;4;
46681;PMS5003;34101;53.430;-2.224;2023-07-22T03:47:51;4;4;
46681;PMS5003;34101;53.430;-2.224;2023-07-22T03:50:20;4;4;
46681;PMS5003;34101;53.430;-2.224;2023-07-22T03:52:48;4;4;
46681;PMS5003;34101;53.430;-2.224;2023-07-22T03:55:16;4;4;
46681;PMS5003;34101;53.430;-2.224;2023-07-22T03:57:43;3;3;
46681;PMS5003;34101;53.430;-2.224;2023-07-22T04:00:10;4;4;
46681;PMS5003;34101;53.430;-2.224;2023-07-22T04:02:38;4;4;
46681;PMS5003;34101;53.430;-2.224;2023-07-22T04:05:06;8;5;
46681;PMS5003;34101;53.430;-2.224;2023-07-22T04:07:35;6;4;
46681;PMS5003;34101;53.430;-2.224;2023-07-22T04:10:02;5;5;
46681;PMS5003;34101;53.430;-2.224;2023-07-22T04:12:30;6;5;
46681;PMS5003;34101;53.430;-2.224;2023-07-22T04:14:58;6;4;
46681;PMS5003;34101;53.430;-2.224;2023-07-22T04:17:25;6;4;
46681;PMS5003;34101;53.430;-2.224;2023-07-22T04:19:53;4;4;
46681;PMS5003;34101;53.430;-2.224;2023-07-22T04:22:20;6;5;
46681;PMS5003;34101;53.430;-2.224;2023-07-22T04:24:47;6;6;
46681;PMS5003;34101;53.430;-2.224;2023-07-22T04:27:16;5;5;
46681;PMS5003;34101;53.430;-2.224;2023-07-22T04:29:43;7;7;
46681;PMS5003;34101;53.430;-2.224;2023-07-22T04:32:11;6;6;
46681;PMS5003;34101;53.430;-2.224;2023-07-22T04:34:38;6;6;
46681;PMS5003;34101;53.430;-2.224;2023-07-22T04:37:06;7;6;
46681;PMS5003;34101;53.430;-2.224;2023-07-22T04:39:34;10;8;
46681;PMS5003;34101;53.430;-2.224;2023-07-22T04:42:01;5;3;
46681;PMS5003;34101;53.430;-2.224;2023-07-22T04:44:29;7;7;
46681;PMS5003;34101;53.430;-2.224;2023-07-22T04:46:56;6;6;
46681;PMS5003;34101;53.430;-2.224;2023-07-22T04:49:23;7;7;
46681;PMS5003;34101;53.430;-2.224;2023-07-22T04:51:51;7;7;
46681;PMS5003;34101;53.430;-2.224;2023-07-22T04:54:18;8;6;
46681;PMS5003;34101;53.430;-2.224;2023-07-22T04:56:51;5;5;
46681;PMS5003;34101;53.430;-2.224;2023-07-22T04:59:18;8;8;
46681;PMS5003;34101;53.430;-2.224;2023-07-22T05:01:45;8;6;
46681;PMS5003;34101;53.430;-2.224;2023-07-22T05:04:13;7;7;
46681;PMS5003;34101;53.430;-2.224;2023-07-22T05:06:40;5;5;
46681;PMS5003;34101;53.430;-2.224;2023-07-22T05:09:08;7;7;
46681;PMS5003;34101;53.430;-2.224;2023-07-22T05:11:35;7;6;
46681;PMS5003;34101;53.430;-2.224;2023-07-22T05:14:02;6;6;
46681;PMS5003;34101;53.430;-2.224;2023-07-22T05:16:30;5;5;
46681;PMS5003;34101;53.430;-2.224;2023-07-22T05:18:58;6;6;
46681;PMS5003;34101;53.430;-2.224;2023-07-22T05:21:25;5;5;
46681;PMS5003;34101;53.430;-2.224;2023-07-22T05:23:52;7;5;
46681;PMS5003;34101;53.430;-2.224;2023-07-22T05:26:20;5;5;
46681;PMS5003;34101;53.430;-2.224;2023-07-22T05:28:47;7;7;
46681;PMS5003;34101;53.430;-2.224;2023-07-22T05:31:15;8;7;
46681;PMS5003;34101;53.430;-2.224;2023-07-22T05:33:43;8;7;
46681;PMS5003;34101;53.430;-2.224;2023-07-22T05:36:10;7;7;
46681;PMS5003;34101;53.430;-2.224;2023-07-22T05:38:38;6;5;
46681;PMS5003;34101;53.430;-2.224;2023-07-22T05:41:05;6;6;
46681;PMS5003;34101;53.430;-2.224;2023-07-22T05:43:33;10;9;
46681;PMS5003;34101;53.430;-2.224;2023-07-22T05:46:00;4;4;
46681;PMS5003;34101;53.430;-2.224;2023-07-22T05:48:28;5;5;
46681;PMS5003;34101;53.430;-2.224;2023-07-22T05:50:55;8;6;
46681;PMS5003;34101;53.430;-2.224;2023-07-22T05:53:23;9;7;
46681;PMS5003;34101;53.430;-2.224;2023-07-22T05:55:51;9;7;
46681;PMS5003;34101;53.430;-2.224;2023-07-22T05:58:19;6;6;
46681;PMS5003;34101;53.430;-2.224;2023-07-22T06:00:47;9;6;
46681;PMS5003;34101;53.430;-2.224;2023-07-22T06:03:14;7;7;
46681;PMS5003;34101;53.430;-2.224;2023-07-22T06:05:42;6;6;
46681;PMS5003;34101;53.430;-2.224;2023-07-22T06:08:09;9;8;
46681;PMS5003;34101;53.430;-2.224;2023-07-22T06:10:36;5;5;
46681;PMS5003;34101;53.430;-2.224;2023-07-22T06:13:04;9;9;
46681;PMS5003;34101;53.430;-2.224;2023-07-22T06:15:31;10;8;
46681;PMS5003;34101;53.430;-2.224;2023-07-22T06:17:59;7;7;
46681;PMS5003;34101;53.430;-2.224;2023-07-22T06:20:27;7;7;
46681;PMS5003;34101;53.430;-2.224;2023-07-22T06:22:55;8;6;
46681;PMS5003;34101;53.430;-2.224;2023-07-22T06:25:23;7;7;
46681;PMS5003;34101;53.430;-2.224;2023-07-22T06:27:50;7;7;
46681;PMS5003;34101;53.430;-2.224;2023-07-22T06:30:17;8;8;
46681;PMS5003;34101;53.430;-2.224;2023-07-22T06:32:45;8;8;
46681;PMS5003;34101;53.430;-2.224;2023-07-22T06:35:13;4;4;
46681;PMS5003;34101;53.430;-2.224;2023-07-22T06:37:41;8;8;
46681;PMS5003;34101;53.430;-2.224;2023-07-22T06:40:08;6;6;
46681;PMS5003;34101;53.430;-2.224;2023-07-22T06:42:36;9;9;
46681;PMS5003;34101;53.430;-2.224;2023-07-22T06:45:04;6;6;
46681;PMS5003;34101;53.430;-2.224;2023-07-22T06:47:33;8;8;
46681;PMS5003;34101;53.430;-2.224;2023-07-22T06:50:00;8;7;
46681;PMS5003;34101;53.430;-2.224;2023-07-22T06:52:28;7;7;
46681;PMS5003;34101;53.430;-2.224;2023-07-22T06:54:56;8;8;
46681;PMS5003;34101;53.430;-2.224;2023-07-22T06:57:23;8;8;
46681;PMS5003;34101;53.430;-2.224;2023-07-22T06:59:52;9;8;
46681;PMS5003;34101;53.430;-2.224;2023-07-22T07:02:20;7;7;
46681;PMS5003;34101;53.430;-2.224;2023-07-22T07:04:48;9;7;
46681;PMS5003;34101;53.430;-2.224;2023-07-22T07:07:16;8;8;
46681;PMS5003;34101;53.430;-2.224;2023-07-22T07:09:43;8;8;
46681;PMS5003;34101;53.430;-2.224;2023-07-22T07:12:10;12;10;
46681;PMS5003;34101;53.430;-2.224;2023-07-22T07:14:38;12;10;
46681;PMS5003;34101;53.430;-2.224;2023-07-22T07:17:05;12;11;
46681;PMS5003;34101;53.430;-2.224;2023-07-22T07:19:34;9;8;
46681;PMS5003;34101;53.430;-2.224;2023-07-22T07:22:02;9;9;
46681;PMS5003;34101;53.430;-2.224;2023-07-22T07:24:30;10;8;
46681;PMS5003;34101;53.430;-2.224;2023-07-22T07:26:58;11;9;
46681;PMS5003;34101;53.430;-2.224;2023-07-22T07:29:25;10;10;
46681;PMS5003;34101;53.430;-2.224;2023-07-22T07:31:53;10;10;
46681;PMS5003;34101;53.430;-2.224;2023-07-22T07:34:20;12;10;
46681;PMS5003;34101;53.430;-2.224;2023-07-22T07:36:48;10;10;
46681;PMS5003;34101;53.430;-2.224;2023-07-22T07:39:15;11;10;
46681;PMS5003;34101;53.430;-2.224;2023-07-22T07:41:42;11;10;
46681;PMS5003;34101;53.430;-2.224;2023-07-22T07:44:10;10;10;
46681;PMS5003;34101;53.430;-2.224;2023-07-22T07:46:37;8;8;
46681;PMS5003;34101;53.430;-2.224;2023-07-22T07:49:05;13;12;
46681;PMS5003;34101;53.430;-2.224;2023-07-22T07:51:33;9;9;
46681;PMS5003;34101;53.430;-2.224;2023-07-22T07:54:00;11;10;
46681;PMS5003;34101;53.430;-2.224;2023-07-22T07:56:28;12;11;
46681;PMS5003;34101;53.430;-2.224;2023-07-22T07:58:55;9;9;
46681;PMS5003;34101;53.430;-2.224;2023-07-22T08:01:23;9;9;
46681;PMS5003;34101;53.430;-2.224;2023-07-22T08:03:50;10;8;
46681;PMS5003;34101;53.430;-2.224;2023-07-22T08:06:17;8;8;
46681;PMS5003;34101;53.430;-2.224;2023-07-22T08:08:45;8;7;
46681;PMS5003;34101;53.430;-2.224;2023-07-22T08:11:13;11;11;
46681;PMS5003;34101;53.430;-2.224;2023-07-22T08:13:41;10;9;
46681;PMS5003;34101;53.430;-2.224;2023-07-22T08:16:10;6;6;
46681;PMS5003;34101;53.430;-2.224;2023-07-22T08:18:38;10;9;
46681;PMS5003;34101;53.430;-2.224;2023-07-22T08:21:06;9;8;
46681;PMS5003;34101;53.430;-2.224;2023-07-22T08:23:34;6;6;
46681;PMS5003;34101;53.430;-2.224;2023-07-22T08:26:02;6;6;
46681;PMS5003;34101;53.430;-2.224;2023-07-22T08:28:32;6;6;
46681;PMS5003;34101;53.430;-2.224;2023-07-22T08:31:00;10;9;
46681;PMS5003;34101;53.430;-2.224;2023-07-22T08:33:27;9;9;
46681;PMS5003;34101;53.430;-2.224;2023-07-22T08:35:54;7;6;
46681;PMS5003;34101;53.430;-2.224;2023-07-22T08:38:21;8;7;
46681;PMS5003;34101;53.430;-2.224;2023-07-22T08:40:49;6;6;
46681;PMS5003;34101;53.430;-2.224;2023-07-22T08:43:19;8;8;
46681;PMS5003;34101;53.430;-2.224;2023-07-22T08:45:48;6;6;
46681;PMS5003;34101;53.430;-2.224;2023-07-22T08:48:18;7;6;
46681;PMS5003;34101;53.430;-2.224;2023-07-22T08:50:54;7;7;
46681;PMS5003;34101;53.430;-2.224;2023-07-22T08:53:24;5;5;
46681;PMS5003;34101;53.430;-2.224;2023-07-22T08:55:53;5;5;
46681;PMS5003;34101;53.430;-2.224;2023-07-22T08:58:22;7;7;
46681;PMS5003;34101;53.430;-2.224;2023-07-22T09:00:57;5;5;
46681;PMS5003;34101;53.430;-2.224;2023-07-22T09:03:25;5;5;
46681;PMS5003;34101;53.430;-2.224;2023-07-22T09:05:54;5;5;
46681;PMS5003;34101;53.430;-2.224;2023-07-22T09:08:22;6;6;
46681;PMS5003;34101;53.430;-2.224;2023-07-22T09:10:50;6;6;
46681;PMS5003;34101;53.430;-2.224;2023-07-22T09:13:17;6;6;
46681;PMS5003;34101;53.430;-2.224;2023-07-22T09:15:47;7;7;
46681;PMS5003;34101;53.430;-2.224;2023-07-22T09:18:19;5;5;
46681;PMS5003;34101;53.430;-2.224;2023-07-22T09:20:47;5;5;
46681;PMS5003;34101;53.430;-2.224;2023-07-22T09:23:14;5;5;
46681;PMS5003;34101;53.430;-2.224;2023-07-22T09:25:42;5;3;
46681;PMS5003;34101;53.430;-2.224;2023-07-22T09:28:10;6;5;
46681;PMS5003;34101;53.430;-2.224;2023-07-22T09:30:37;7;7;
46681;PMS5003;34101;53.430;-2.224;2023-07-22T09:33:07;5;5;
46681;PMS5003;34101;53.430;-2.224;2023-07-22T09:35:47;7;6;
46681;PMS5003;34101;53.430;-2.224;2023-07-22T09:38:22;6;4;
46681;PMS5003;34101;53.430;-2.224;2023-07-22T09:40:50;6;6;
46681;PMS5003;34101;53.430;-2.224;2023-07-22T09:43:21;6;6;
46681;PMS5003;34101;53.430;-2.224;2023-07-22T09:45:50;5;5;
46681;PMS5003;34101;53.430;-2.224;2023-07-22T09:48:20;5;5;
46681;PMS5003;34101;53.430;-2.224;2023-07-22T09:50:55;3;3;
46681;PMS5003;34101;53.430;-2.224;2023-07-22T09:53:23;7;6;
46681;PMS5003;34101;53.430;-2.224;2023-07-22T09:55:50;5;4;
46681;PMS5003;34101;53.430;-2.224;2023-07-22T09:58:19;4;4;
46681;PMS5003;34101;53.430;-2.224;2023-07-22T10:00:52;4;4;
46681;PMS5003;34101;53.430;-2.224;2023-07-22T10:03:19;6;6;
46681;PMS5003;34101;53.430;-2.224;2023-07-22T10:05:50;5;5;
46681;PMS5003;34101;53.430;-2.224;2023-07-22T10:08:18;6;6;
46681;PMS5003;34101;53.430;-2.224;2023-07-22T10:10:49;6;6;
46681;PMS5003;34101;53.430;-2.224;2023-07-22T10:13:20;5;5;
46681;PMS5003;34101;53.430;-2.224;2023-07-22T10:15:48;5;5;
46681;PMS5003;34101;53.430;-2.224;2023-07-22T10:18:16;5;5;
46681;PMS5003;34101;53.430;-2.224;2023-07-22T10:20:45;6;5;
46681;PMS5003;34101;53.430;-2.224;2023-07-22T10:23:13;7;7;
46681;PMS5003;34101;53.430;-2.224;2023-07-22T10:25:42;6;6;
46681;PMS5003;34101;53.430;-2.224;2023-07-22T10:28:10;7;7;
46681;PMS5003;34101;53.430;-2.224;2023-07-22T10:30:39;6;6;
46681;PMS5003;34101;53.430;-2.224;2023-07-22T10:33:07;9;9;
46681;PMS5003;34101;53.430;-2.224;2023-07-22T10:35:40;8;8;
46681;PMS5003;34101;53.430;-2.224;2023-07-22T10:38:09;5;5;
46681;PMS5003;34101;53.430;-2.224;2023-07-22T10:40:45;7;7;
46681;PMS5003;34101;53.430;-2.224;2023-07-22T10:43:15;6;5;
46681;PMS5003;34101;53.430;-2.224;2023-07-22T10:45:48;10;7;
46681;PMS5003;34101;53.430;-2.224;2023-07-22T10:48:17;8;7;
46681;PMS5003;34101;53.430;-2.224;2023-07-22T10:50:46;8;8;
46681;PMS5003;34101;53.430;-2.224;2023-07-22T10:53:20;7;7;
46681;PMS5003;34101;53.430;-2.224;2023-07-22T10:56:27;7;5;
46681;PMS5003;34101;53.430;-2.224;2023-07-22T10:58:56;5;5;
46681;PMS5003;34101;53.430;-2.224;2023-07-22T11:01:34;7;7;
46681;PMS5003;34101;53.430;-2.224;2023-07-22T11:04:11;6;4;
46681;PMS5003;34101;53.430;-2.224;2023-07-22T11:06:53;8;8;
46681;PMS5003;34101;53.430;-2.224;2023-07-22T11:09:38;7;7;
46681;PMS5003;34101;53.430;-2.224;2023-07-22T11:12:07;6;6;
46681;PMS5003;34101;53.430;-2.224;2023-07-22T11:14:38;5;5;
46681;PMS5003;34101;53.430;-2.224;2023-07-22T11:17:07;7;7;
46681;PMS5003;34101;53.430;-2.224;2023-07-22T11:19:35;6;6;
46681;PMS5003;34101;53.430;-2.224;2023-07-22T11:22:04;6;6;
46681;PMS5003;34101;53.430;-2.224;2023-07-22T11:24:33;15;12;
46681;PMS5003;34101;53.430;-2.224;2023-07-22T11:27:02;4;4;
46681;PMS5003;34101;53.430;-2.224;2023-07-22T11:29:32;7;7;
46681;PMS5003;34101;53.430;-2.224;2023-07-22T11:31:59;5;5;
46681;PMS5003;34101;53.430;-2.224;2023-07-22T11:34:27;3;3;
46681;PMS5003;34101;53.430;-2.224;2023-07-22T11:36:55;7;6;
46681;PMS5003;34101;53.430;-2.224;2023-07-22T11:39:23;5;5;
46681;PMS5003;34101;53.430;-2.224;2023-07-22T11:41:51;4;3;
46681;PMS5003;34101;53.430;-2.224;2023-07-22T11:44:20;6;6;
46681;PMS5003;34101;53.430;-2.224;2023-07-22T11:46:51;5;5;
46681;PMS5003;34101;53.430;-2.224;2023-07-22T11:49:23;5;5;
46681;PMS5003;34101;53.430;-2.224;2023-07-22T11:51:53;4;4;
46681;PMS5003;34101;53.430;-2.224;2023-07-22T11:54:21;5;5;
46681;PMS5003;34101;53.430;-2.224;2023-07-22T11:56:49;4;4;
46681;PMS5003;34101;53.430;-2.224;2023-07-22T11:59:17;4;4;
46681;PMS5003;34101;53.430;-2.224;2023-07-22T12:01:59;3;3;
46681;PMS5003;34101;53.430;-2.224;2023-07-22T12:04:26;4;4;
46681;PMS5003;34101;53.430;-2.224;2023-07-22T12:06:54;3;3;
46681;PMS5003;34101;53.430;-2.224;2023-07-22T12:09:22;6;5;
46681;PMS5003;34101;53.430;-2.224;2023-07-22T12:11:55;5;5;
46681;PMS5003;34101;53.430;-2.224;2023-07-22T12:14:23;5;5;
46681;PMS5003;34101;53.430;-2.224;2023-07-22T12:16:54;5;5;
46681;PMS5003;34101;53.430;-2.224;2023-07-22T12:19:22;4;4;
46681;PMS5003;34101;53.430;-2.224;2023-07-22T12:21:50;6;6;
46681;PMS5003;34101;53.430;-2.224;2023-07-22T12:24:17;5;5;
46681;PMS5003;34101;53.430;-2.224;2023-07-22T12:26:44;4;4;
46681;PMS5003;34101;53.430;-2.224;2023-07-22T12:29:12;3;3;
46681;PMS5003;34101;53.430;-2.224;2023-07-22T12:31:39;4;4;
46681;PMS5003;34101;53.430;-2.224;2023-07-22T12:34:07;5;5;
46681;PMS5003;34101;53.430;-2.224;2023-07-22T12:36:35;4;4;
46681;PMS5003;34101;53.430;-2.224;2023-07-22T12:39:02;4;4;
46681;PMS5003;34101;53.430;-2.224;2023-07-22T12:41:30;4;4;
46681;PMS5003;34101;53.430;-2.224;2023-07-22T12:43:57;3;3;
46681;PMS5003;34101;53.430;-2.224;2023-07-22T12:46:25;3;3;
46681;PMS5003;34101;53.430;-2.224;2023-07-22T12:48:52;4;4;
46681;PMS5003;34101;53.430;-2.224;2023-07-22T12:51:20;4;4;
46681;PMS5003;34101;53.430;-2.224;2023-07-22T12:53:47;3;3;
46681;PMS5003;34101;53.430;-2.224;2023-07-22T12:56:14;4;4;
46681;PMS5003;34101;53.430;-2.224;2023-07-22T12:58:47;3;3;
46681;PMS5003;34101;53.430;-2.224;2023-07-22T13:01:16;3;3;
46681;PMS5003;34101;53.430;-2.224;2023-07-22T13:03:44;3;3;
46681;PMS5003;34101;53.430;-2.224;2023-07-22T13:06:11;6;4;
46681;PMS5003;34101;53.430;-2.224;2023-07-22T13:08:38;3;3;
46681;PMS5003;34101;53.430;-2.224;2023-07-22T13:11:06;5;5;
46681;PMS5003;34101;53.430;-2.224;2023-07-22T13:13:33;3;3;
46681;PMS5003;34101;53.430;-2.224;2023-07-22T13:16:01;4;4;
46681;PMS5003;34101;53.430;-2.224;2023-07-22T13:18:28;4;4;
46681;PMS5003;34101;53.430;-2.224;2023-07-22T13:20:56;4;4;
46681;PMS5003;34101;53.430;-2.224;2023-07-22T13:23:23;3;3;
46681;PMS5003;34101;53.430;-2.224;2023-07-22T13:25:51;3;3;
46681;PMS5003;34101;53.430;-2.224;2023-07-22T13:28:18;4;4;
46681;PMS5003;34101;53.430;-2.224;2023-07-22T13:30:46;3;3;
46681;PMS5003;34101;53.430;-2.224;2023-07-22T13:33:13;4;4;
46681;PMS5003;34101;53.430;-2.224;2023-07-22T13:35:41;4;4;
46681;PMS5003;34101;53.430;-2.224;2023-07-22T13:38:08;3;3;
46681;PMS5003;34101;53.430;-2.224;2023-07-22T13:40:36;5;3;
46681;PMS5003;34101;53.430;-2.224;2023-07-22T13:43:03;4;4;
46681;PMS5003;34101;53.430;-2.224;2023-07-22T13:45:31;4;4;
46681;PMS5003;34101;53.430;-2.224;2023-07-22T13:47:59;4;4;
46681;PMS5003;34101;53.430;-2.224;2023-07-22T13:50:27;3;3;
46681;PMS5003;34101;53.430;-2.224;2023-07-22T13:52:54;2;2;
46681;PMS5003;34101;53.430;-2.224;2023-07-22T13:55:28;4;4;
46681;PMS5003;34101;53.430;-2.224;2023-07-22T13:57:55;2;2;
46681;PMS5003;34101;53.430;-2.224;2023-07-22T14:00:24;2;2;
46681;PMS5003;34101;53.430;-2.224;2023-07-22T14:02:52;3;3;
46681;PMS5003;34101;53.430;-2.224;2023-07-22T14:05:20;4;3;
46681;PMS5003;34101;53.430;-2.224;2023-07-22T14:07:47;2;2;
46681;PMS5003;34101;53.430;-2.224;2023-07-22T14:10:15;3;3;
46681;PMS5003;34101;53.430;-2.224;2023-07-22T14:12:42;3;3;
46681;PMS5003;34101;53.430;-2.224;2023-07-22T14:15:10;2;2;
46681;PMS5003;34101;53.430;-2.224;2023-07-22T14:17:37;2;2;
46681;PMS5003;34101;53.430;-2.224;2023-07-22T14:20:05;3;3;
46681;PMS5003;34101;53.430;-2.224;2023-07-22T14:22:34;1;1;
46681;PMS5003;34101;53.430;-2.224;2023-07-22T14:25:01;3;3;
46681;PMS5003;34101;53.430;-2.224;2023-07-22T14:27:29;2;2;
46681;PMS5003;34101;53.430;-2.224;2023-07-22T14:29:57;1;1;
46681;PMS5003;34101;53.430;-2.224;2023-07-22T14:32:24;1;1;
46681;PMS5003;34101;53.430;-2.224;2023-07-22T14:34:52;3;3;
46681;PMS5003;34101;53.430;-2.224;2023-07-22T14:37:19;2;2;
46681;PMS5003;34101;53.430;-2.224;2023-07-22T14:39:47;3;3;
46681;PMS5003;34101;53.430;-2.224;2023-07-22T14:42:14;1;1;
46681;PMS5003;34101;53.430;-2.224;2023-07-22T14:44:42;2;2;
46681;PMS5003;34101;53.430;-2.224;2023-07-22T14:47:09;2;2;
46681;PMS5003;34101;53.430;-2.224;2023-07-22T14:49:36;3;3;
46681;PMS5003;34101;53.430;-2.224;2023-07-22T14:52:04;2;2;
46681;PMS5003;34101;53.430;-2.224;2023-07-22T14:54:33;3;3;
46681;PMS5003;34101;53.430;-2.224;2023-07-22T14:57:00;3;2;
46681;PMS5003;34101;53.430;-2.224;2023-07-22T14:59:28;2;2;
46681;PMS5003;34101;53.430;-2.224;2023-07-22T15:01:55;2;2;
46681;PMS5003;34101;53.430;-2.224;2023-07-22T15:04:23;3;3;
46681;PMS5003;34101;53.430;-2.224;2023-07-22T15:06:51;2;2;
46681;PMS5003;34101;53.430;-2.224;2023-07-22T15:09:18;2;2;
46681;PMS5003;34101;53.430;-2.224;2023-07-22T15:11:46;3;2;
46681;PMS5003;34101;53.430;-2.224;2023-07-22T15:14:13;3;3;
46681;PMS5003;34101;53.430;-2.224;2023-07-22T15:16:40;1;1;
46681;PMS5003;34101;53.430;-2.224;2023-07-22T15:19:08;2;2;
46681;PMS5003;34101;53.430;-2.224;2023-07-22T15:21:36;2;2;
46681;PMS5003;34101;53.430;-2.224;2023-07-22T15:24:04;2;2;
46681;PMS5003;34101;53.430;-2.224;2023-07-22T15:26:31;2;2;
46681;PMS5003;34101;53.430;-2.224;2023-07-22T15:28:59;3;3;
46681;PMS5003;34101;53.430;-2.224;2023-07-22T15:31:26;3;3;
46681;PMS5003;34101;53.430;-2.224;2023-07-22T15:33:53;2;2;
46681;PMS5003;34101;53.430;-2.224;2023-07-22T15:36:21;4;4;
46681;PMS5003;34101;53.430;-2.224;2023-07-22T15:38:48;2;2;
46681;PMS5003;34101;53.430;-2.224;2023-07-22T15:41:15;2;2;
46681;PMS5003;34101;53.430;-2.224;2023-07-22T15:43:43;2;2;
46681;PMS5003;34101;53.430;-2.224;2023-07-22T15:46:10;3;3;
46681;PMS5003;34101;53.430;-2.224;2023-07-22T15:48:38;3;3;
46681;PMS5003;34101;53.430;-2.224;2023-07-22T15:51:05;2;2;
46681;PMS5003;34101;53.430;-2.224;2023-07-22T15:53:33;2;2;
46681;PMS5003;34101;53.430;-2.224;2023-07-22T15:56:00;3;3;
46681;PMS5003;34101;53.430;-2.224;2023-07-22T15:58:27;2;2;
46681;PMS5003;34101;53.430;-2.224;2023-07-22T16:00:55;3;3;
46681;PMS5003;34101;53.430;-2.224;2023-07-22T16:03:22;3;3;
46681;PMS5003;34101;53.430;-2.224;2023-07-22T16:05:50;2;2;
46681;PMS5003;34101;53.430;-2.224;2023-07-22T16:08:18;2;2;
46681;PMS5003;34101;53.430;-2.224;2023-07-22T16:10:45;3;3;
46681;PMS5003;34101;53.430;-2.224;2023-07-22T16:13:13;2;2;
46681;PMS5003;34101;53.430;-2.224;2023-07-22T16:15:40;2;2;
46681;PMS5003;34101;53.430;-2.224;2023-07-22T16:18:08;3;3;
46681;PMS5003;34101;53.430;-2.224;2023-07-22T16:20:35;3;3;
46681;PMS5003;34101;53.430;-2.224;2023-07-22T16:23:02;4;2;
46681;PMS5003;34101;53.430;-2.224;2023-07-22T16:25:30;2;2;
46681;PMS5003;34101;53.430;-2.224;2023-07-22T16:27:57;3;3;
46681;PMS5003;34101;53.430;-2.224;2023-07-22T16:30:26;2;2;
46681;PMS5003;34101;53.430;-2.224;2023-07-22T16:32:53;2;2;
46681;PMS5003;34101;53.430;-2.224;2023-07-22T16:35:21;2;2;
46681;PMS5003;34101;53.430;-2.224;2023-07-22T16:37:48;2;2;
46681;PMS5003;34101;53.430;-2.224;2023-07-22T16:40:16;1;1;